createdAt,value
2023-03-02T00:04:22.234Z,80
2023-03-02T00:09:21.650Z,81
2023-03-02T00:14:19.056Z,81
2023-03-02T00:19:18.774Z,82
2023-03-02T00:24:19.091Z,83
2023-03-02T00:29:16.142Z,83
2023-03-02T00:34:16.059Z,84
2023-03-02T00:39:15.278Z,84
2023-03-02T00:44:15.175Z,84
2023-03-02T00:49:14.613Z,84
2023-03-02T00:54:14.442Z,84
2023-03-02T00:59:02.296Z,84
2023-03-02T01:04:02.210Z,84
2023-03-02T01:09:03.518Z,85
2023-03-02T01:13:59.356Z,85
2023-03-02T01:18:59.357Z,85
2023-03-02T01:23:58.618Z,86
2023-03-02T01:28:58.792Z,86
2023-03-02T01:33:56.065Z,86
2023-03-02T01:38:55.962Z,87
2023-03-02T01:43:55.258Z,87
2023-03-02T01:48:55.093Z,87
2023-03-02T01:53:55.630Z,87
2023-03-02T01:58:53.007Z,87
2023-03-02T02:03:53.011Z,86
2023-03-02T02:08:54.059Z,86
2023-03-02T02:13:50.460Z,87
2023-03-02T02:18:50.645Z,87
2023-03-02T02:23:49.518Z,87
2023-03-02T02:28:49.052Z,87
2023-03-02T02:33:48.718Z,87
2023-03-02T02:38:48.329Z,87
2023-03-02T02:43:48.309Z,87
2023-03-02T02:48:47.000Z,87
2023-03-02T02:53:48.076Z,87
2023-03-02T02:58:44.233Z,88
2023-03-02T03:03:44.146Z,88
2023-03-02T03:08:43.587Z,88
2023-03-02T03:13:43.528Z,88
2023-03-02T03:18:40.992Z,88
2023-03-02T03:23:40.813Z,88
2023-03-02T03:28:39.858Z,88
2023-03-02T03:33:40.533Z,88
2023-03-02T03:38:47.346Z,88
2023-03-02T03:43:47.005Z,88
2023-03-02T03:48:47.325Z,89
2023-03-02T03:53:45.261Z,89
2023-03-02T03:58:45.288Z,89
2023-03-02T04:00:11.254Z,89
2023-03-02T04:05:07.960Z,89
2023-03-02T04:10:04.787Z,89
2023-03-02T04:15:04.581Z,90
2023-03-02T04:20:03.490Z,90
2023-03-02T04:25:03.681Z,90
2023-03-02T04:30:01.008Z,90
2023-03-02T04:35:00.708Z,91
2023-03-02T04:39:59.719Z,91
2023-03-02T04:44:59.489Z,91
2023-03-02T04:49:59.074Z,91
2023-03-02T04:54:58.410Z,92
2023-03-02T04:59:18.838Z,92
2023-03-02T05:04:18.563Z,92
2023-03-02T05:09:16.368Z,92
2023-03-02T05:14:16.378Z,92
2023-03-02T05:19:15.604Z,92
2023-03-02T05:24:15.700Z,91
2023-03-02T05:29:14.760Z,91
2023-03-02T05:34:14.828Z,90
2023-03-02T05:39:14.695Z,90
2023-03-02T05:44:14.550Z,90
2023-03-02T05:49:15.666Z,90
2023-03-02T05:54:12.114Z,90
2023-03-02T05:58:58.919Z,90
2023-03-02T06:03:58.688Z,90
2023-03-02T06:08:58.249Z,90
2023-03-02T06:13:55.573Z,90
2023-03-02T06:18:55.426Z,90
2023-03-02T06:23:55.201Z,90
2023-03-02T06:28:54.944Z,90
2023-03-02T06:33:59.873Z,90
2023-03-02T06:38:53.506Z,90
2023-03-02T06:43:53.653Z,90
2023-03-02T06:48:52.297Z,90
2023-03-02T06:53:52.195Z,90
2023-03-02T06:58:51.508Z,89
2023-03-02T07:03:51.952Z,89
2023-03-02T07:08:49.149Z,88
2023-03-02T07:13:49.423Z,88
2023-03-02T07:18:48.732Z,87
2023-03-02T07:23:48.863Z,86
2023-03-02T07:28:48.363Z,85
2023-03-02T07:33:48.451Z,84
2023-03-02T07:38:48.668Z,83
2023-03-02T07:43:48.410Z,83
2023-03-02T07:48:49.634Z,82
2023-03-02T07:53:46.325Z,80
2023-03-02T07:58:46.655Z,79
2023-03-02T08:03:46.159Z,78
2023-03-02T08:08:46.731Z,77
2023-03-02T08:13:44.046Z,76
2023-03-02T08:18:44.290Z,75
2023-03-02T08:23:43.730Z,73
2023-03-02T08:33:41.496Z,71
2023-03-02T08:38:41.297Z,71
2023-03-02T08:43:40.638Z,69
2023-03-02T08:48:40.081Z,69
2023-03-02T08:53:47.907Z,68
2023-03-02T08:58:47.440Z,67
2023-03-02T09:03:47.867Z,68
2023-03-02T09:08:46.147Z,67
2023-03-02T09:13:46.600Z,66
2023-03-02T09:18:46.774Z,66
2023-03-02T09:23:47.811Z,64
2023-03-02T09:28:44.718Z,64
2023-03-02T09:33:45.015Z,64
2023-03-02T09:38:45.331Z,63
2023-03-02T09:43:42.623Z,63
2023-03-02T09:48:31.724Z,61
2023-03-02T09:53:31.489Z,62
2023-03-02T09:58:32.922Z,61
2023-03-02T10:03:29.249Z,63
2023-03-02T10:08:28.765Z,62
2023-03-02T10:13:28.673Z,62
2023-03-02T10:18:28.247Z,63
2023-03-02T10:23:27.860Z,62
2023-03-02T10:28:28.335Z,60
2023-03-02T10:33:28.061Z,60
2023-03-02T10:38:29.314Z,58
2023-03-02T10:43:25.726Z,60
2023-03-02T10:48:26.120Z,58
2023-03-02T10:53:25.929Z,57
2023-03-02T10:58:26.734Z,56
2023-03-02T10:59:48.526Z,57
2023-03-02T11:04:49.522Z,56
2023-03-02T11:09:47.910Z,56
2023-03-02T11:14:47.648Z,55
2023-03-02T11:19:46.921Z,55
2023-03-02T11:24:46.917Z,55
2023-03-02T11:29:47.120Z,54
2023-03-02T11:34:46.980Z,51
2023-03-02T11:39:56.212Z,53
2023-03-02T11:44:45.645Z,53
2023-03-02T11:49:45.036Z,52
2023-03-02T11:54:44.606Z,52
2023-03-02T11:59:12.098Z,51
2023-03-02T12:04:12.300Z,52
2023-03-02T12:09:11.323Z,54
2023-03-02T12:14:11.921Z,51
2023-03-02T12:19:12.925Z,50
2023-03-02T12:24:09.344Z,52
2023-03-02T12:29:09.286Z,51
2023-03-02T12:34:08.725Z,51
2023-03-02T12:39:08.857Z,50
2023-03-02T12:44:06.567Z,49
2023-03-02T12:49:08.617Z,49
2023-03-02T12:54:05.861Z,50
2023-03-02T12:58:51.763Z,50
2023-03-02T13:03:51.720Z,48
2023-03-02T13:08:50.866Z,49
2023-03-02T13:13:51.198Z,49
2023-03-02T13:18:50.445Z,49
2023-03-02T13:23:48.648Z,49
2023-03-02T13:28:48.238Z,48
2023-03-02T13:33:47.814Z,49
2023-03-02T13:38:47.141Z,48
2023-03-02T13:43:46.852Z,47
2023-03-02T13:48:46.400Z,47
2023-03-02T13:53:45.789Z,48
2023-03-02T13:58:45.295Z,47
2023-03-02T14:03:46.508Z,47
2023-03-02T14:08:42.864Z,47
2023-03-02T14:13:43.038Z,49
2023-03-02T14:18:42.488Z,47
2023-03-02T14:23:42.538Z,47
2023-03-02T14:28:39.531Z,46
2023-03-02T14:33:39.721Z,45
2023-03-02T14:38:49.050Z,47
2023-03-02T14:43:38.938Z,47
2023-03-02T14:48:47.084Z,47
2023-03-02T14:53:46.357Z,46
2023-03-02T14:58:46.745Z,46
2023-03-02T15:05:08.107Z,47
2023-03-02T15:10:07.473Z,47
2023-03-02T15:15:07.432Z,47
2023-03-02T15:20:04.906Z,48
2023-03-02T15:25:04.916Z,49
2023-03-02T15:30:03.739Z,49
2023-03-02T15:35:03.307Z,50
2023-03-02T15:40:03.221Z,50
2023-03-02T15:45:02.744Z,50
2023-03-02T15:50:02.489Z,50
2023-03-02T15:55:02.091Z,51
2023-03-02T15:59:23.898Z,51
2023-03-02T16:04:20.463Z,51
2023-03-02T16:09:20.343Z,51
2023-03-02T16:14:19.698Z,51
2023-03-02T16:19:20.014Z,52
2023-03-02T16:24:16.579Z,52
2023-03-02T16:29:16.234Z,53
2023-03-02T16:34:15.528Z,54
2023-03-02T16:39:15.950Z,55
2023-03-02T16:44:12.270Z,56
2023-03-02T16:49:12.468Z,56
2023-03-02T16:54:12.520Z,57
2023-03-02T16:59:08.463Z,58
2023-03-02T17:04:08.408Z,58
2023-03-02T17:09:07.650Z,58
2023-03-02T17:14:06.743Z,59
2023-03-02T17:19:07.671Z,60
2023-03-02T17:24:04.696Z,61
2023-03-02T17:29:03.831Z,63
2023-03-02T17:34:03.246Z,63
2023-03-02T17:39:03.362Z,64
2023-03-02T17:44:00.484Z,65
2023-03-02T17:49:00.622Z,65
2023-03-02T17:53:59.409Z,66
2023-03-02T17:58:46.994Z,67
2023-03-02T18:03:46.849Z,67
2023-03-02T18:08:45.885Z,68
2023-03-02T18:13:45.991Z,68
2023-03-02T18:18:45.447Z,68
2023-03-02T18:23:43.043Z,69
2023-03-02T18:28:43.051Z,69
2023-03-02T18:33:42.517Z,69
2023-03-02T18:38:42.042Z,70
2023-03-02T18:43:41.824Z,70
2023-03-02T18:48:41.331Z,70
2023-03-02T18:53:40.358Z,70
2023-03-02T18:58:40.040Z,70
2023-03-02T19:03:40.930Z,71
2023-03-02T19:08:47.729Z,71
2023-03-02T19:13:47.206Z,71
2023-03-02T19:18:47.507Z,71
2023-03-02T19:23:47.336Z,71
2023-03-02T19:28:44.897Z,71
2023-03-02T19:33:45.123Z,71
2023-03-02T19:38:44.084Z,71
2023-03-02T19:43:44.496Z,71
2023-03-02T19:48:44.428Z,71
2023-03-02T19:53:43.177Z,71
2023-03-02T19:58:42.515Z,71
2023-03-02T20:00:05.280Z,71
2023-03-02T20:05:05.503Z,72
2023-03-02T20:10:02.053Z,72
2023-03-02T20:15:02.600Z,72
2023-03-02T20:20:01.502Z,73
2023-03-02T20:25:01.870Z,73
2023-03-02T20:29:58.702Z,74
2023-03-02T20:34:58.588Z,74
2023-03-02T20:39:58.000Z,74
2023-03-02T20:44:57.714Z,74
2023-03-02T20:49:56.712Z,74
2023-03-02T20:54:56.267Z,74
2023-03-02T20:59:16.695Z,74
2023-03-02T21:04:16.295Z,75
2023-03-02T21:09:17.414Z,75
2023-03-02T21:14:13.856Z,75
2023-03-02T21:19:13.962Z,75
2023-03-02T21:24:13.258Z,75
2023-03-02T21:29:12.535Z,76
2023-03-02T21:34:12.841Z,76
2023-03-02T21:39:12.247Z,76
2023-03-02T21:44:12.307Z,76
2023-03-02T21:49:13.237Z,76
2023-03-02T21:54:09.630Z,77
2023-03-02T21:59:06.718Z,77
2023-03-02T22:04:05.868Z,77
2023-03-02T22:09:05.666Z,77
2023-03-02T22:14:03.056Z,77
2023-03-02T22:19:03.259Z,77
2023-03-02T22:24:02.796Z,77
2023-03-02T22:29:02.341Z,77
2023-03-02T22:34:01.856Z,77
2023-03-02T22:39:01.577Z,77
2023-03-02T22:44:01.532Z,77
2023-03-02T22:49:01.167Z,77
2023-03-02T22:54:02.372Z,77
2023-03-02T22:58:44.741Z,77
2023-03-02T23:03:44.994Z,77
2023-03-02T23:08:45.236Z,77
2023-03-02T23:13:44.357Z,77
2023-03-02T23:18:44.549Z,77
2023-03-02T23:23:43.347Z,78
2023-03-02T23:28:43.262Z,78
2023-03-02T23:33:44.190Z,78
2023-03-02T23:38:40.477Z,79
2023-03-02T23:43:41.152Z,78
2023-03-02T23:48:39.911Z,78
2023-03-02T23:53:39.765Z,79
2023-03-02T23:58:47.808Z,79
